ダッカ の空港の天気 - METARとTAF

シャージャラル国際空港(ダッカ) ( VGHS / DAC ) - バングラデシュ ダッカ
飛行場実況気象(Metar)
観測時間01/20 23:30 BDT (01/20 17:30 UTC)
風向・風速北北西 2m/s
視程3500m
天気現象煙霧
なし
気温18℃
湿度68%
気圧1016hPa
METARVGHS 201730Z 33004KT 3500 HZ NSC 18/12 Q1016 NOSIG
過去の天気等 Google飛行場航空写真 Wunderground天気予報

過去48時間のMETAR

飛行場予報(TAF)
発表時間: 1/20 23:00 BDT (1/20 17:00 UTC)
予報対象時間: 21日0時 BDT ~ 22日6時 BDT
風向・風速北北西 3m/s
視程3,000m
天気現象煙霧
なし
21日2時 BDT ~ 21日4時 BDT に徐々に
風向・風速不定 2m/s
視程2,000m
天気現象もや
全天の4割程度の雲 雲底高度 460m
21日4時 BDT ~ 21日6時 BDT に徐々に
風向・風速静穏
視程1,000m
天気現象地霧
全天の4割程度の雲 雲底高度 300m
21日6時 BDT ~ 21日9時 BDT に一時的に
風向・風速静穏
視程500m
天気現象
全天の8割程度の雲 雲底高度 150m
21日10時 BDT ~ 21日11時 BDT に徐々に
風向・風速北北西 3m/s
視程1,200m
天気現象もや
全天の4割程度の雲 雲底高度 370m
21日12時 BDT ~ 21日13時 BDT に徐々に
風向・風速北西 4m/s
視程2,200m
21日13時 BDT ~ 21日14時 BDT に徐々に
風向・風速北西 4m/s
視程3,200m
天気現象煙霧
なし
22日2時 BDT ~ 22日4時 BDT に徐々に
風向・風速不定 2m/s
視程2,000m
天気現象もや
なし
TAF VGHS 201700Z 2018/2124 33005KT 3000 HZ NSC
BECMG 2020/2022 VRB03KT 2000 BR SCT015
BECMG 2022/2024 00000KT 1000 MIFG SCT010
TEMPO 2100/2103 00000KT 0500 FG BKN005
BECMG 2104/2105 34005KT 1200 BR SCT012
BECMG 2106/2107 32008KT 2200 BR/HZ NSC
BECMG 2107/2108 32008KT 3200 HZ NSC
BECMG 2120/2122 VRB03KT 2000 BR NSC